Bornholm Airport

EKRN · Capital Region, Denmark

METAR history EKRN · Bornholm Airport

Below you see METARs of the last few days. Select a year to browse through older METARs, from the year 2007 onwards.

February 21, 2024

Time Code Weather Temp. Visibility Ceiling Wind METAR/SPECI
01:50
M
4 °C 10 km+ 2,000 ft 210° 210° 8 kt METAR EKRN 210050Z AUTO 21008KT 180V260 9999 BKN020/// BKN088/// BKN110/// 04/04 Q1015
01:20
M
4 °C 10 km+ 1,800 ft 210° 210° 7 kt METAR EKRN 210020Z AUTO 21007KT 180V250 9999 BR BKN018/// OVC034/// 04/04 Q1016
00:50
M
4 °C 8 km 1,300 ft 230° 230° 6 kt METAR EKRN 202350Z AUTO 23006KT 8000 BR BKN013/// OVC034/// 04/04 Q1016
00:20
V
5 °C 10 km+ 3,500 ft 240° 240° 10 kt METAR EKRN 202320Z AUTO 24010KT 9999 -RA FEW012/// OVC035/// 05/04 Q1016

February 20, 2024

Time Code Weather Temp. Visibility Ceiling Wind METAR/SPECI
23:50
M
5 °C 10 km+ 2,800 ft 250° 250° 11 kt METAR EKRN 202250Z AUTO 25011KT 9999 -RA OVC028/// 05/04 Q1017
23:20
M
4 °C 10 km+ 2,800 ft 250° 250° 11 kt METAR EKRN 202220Z AUTO 25011KT 9999 -RA BR OVC028/// 04/04 Q1017
22:50
V
4 °C 10 km+ 3,100 ft 250° 250° 8 kt METAR EKRN 202150Z AUTO 25008KT 9999 -DZ BKN031/// OVC069/// 04/04 Q1017
22:20
V
4 °C 10 km+ 3,300 ft 250° 250° 9 kt METAR EKRN 202120Z AUTO 25009KT 9999 FEW019/// BKN033/// BKN064/// 04/04 Q1017
21:50
V
4 °C 10 km+ 7,700 ft 250° 250° 13 kt METAR EKRN 202050Z AUTO 25013KT 9999 FEW020/// SCT024/// BKN077/// BKN110/// 04/04 Q1017
21:20
V
4 °C 10 km+ 7,000 ft 260° 260° 8 kt METAR EKRN 202020Z AUTO 26008KT 9999 FEW004/// SCT020/// BKN070/// BKN110/// 04/04 Q1018
20:50
V
4 °C 10 km+ - 270° 270° 7 kt METAR EKRN 201950Z AUTO 27007KT 250V310 9999 FEW011/// FEW021/// SCT110/// 04/04 Q1018
20:20
L
4 °C 10 km+ 400 ft 290° 290° 4 kt METAR EKRN 201920Z AUTO 29004KT 9999 BKN004/// BKN012/// BKN023/// 04/03 Q1018
19:50
V
4 °C 10 km+ 3,100 ft 290° 290° 5 kt METAR EKRN 201850Z AUTO 29005KT 9999 FEW021/// BKN031/// 04/04 Q1018
19:20
M
4 °C 10 km+ 1,700 ft 290° 290° 5 kt METAR EKRN 201820Z AUTO 29005KT 9999 OVC017/// 04/04 Q1018
18:50
M
5 °C 10 km+ 2,200 ft 290° 290° 8 kt METAR EKRN 201750Z AUTO 29008KT 9999 OVC022/// 05/04 Q1018
18:20
M
5 °C 10 km+ 2,600 ft 290° 290° 9 kt METAR EKRN 201720Z AUTO 29009KT 9999 OVC026/// 05/04 Q1018
17:50
M
5 °C 10 km+ 2,800 ft 290° 290° 8 kt METAR EKRN 201650Z AUTO 29008KT 9999 OVC028/// 05/04 Q1018
17:20
M
5 °C 10 km+ 1,900 ft 290° 290° 8 kt METAR EKRN 201620Z AUTO 29008KT 9999 OVC019/// 05/04 Q1018
16:50
M
5 °C 10 km+ 2,100 ft 290° 290° 9 kt METAR EKRN 201550Z AUTO 29009KT 9999 OVC021/// 05/04 Q1018
16:20
M
5 °C 10 km+ 2,400 ft 280° 280° 11 kt METAR EKRN 201520Z AUTO 28011KT 9999 OVC024/// 05/04 Q1018
15:50
M
5 °C 9 km 2,600 ft 270° 270° 13 kt METAR EKRN 201450Z AUTO 27013KT 9000 OVC026/// 05/04 Q1018
15:20
M
5 °C 7 km 2,300 ft 270° 270° 14 kt METAR EKRN 201420Z AUTO 27014KT 7000 OVC023/// 05/04 Q1018
14:50
M
5 °C 8 km 2,100 ft 270° 270° 14 kt METAR EKRN 201350Z AUTO 27014KT 8000 OVC021/// 05/04 Q1018
14:20
M
5 °C 9 km 1,700 ft 270° 270° 15 kt METAR EKRN 201320Z AUTO 27015KT 9000 OVC017/// 05/04 Q1018
13:50
M
5 °C 9 km 1,400 ft 270° 270° 13 kt METAR EKRN 201250Z AUTO 27013KT 9000 OVC014/// 05/04 Q1017
13:20
M
5 °C 10 km+ 2,000 ft 280° 280° 12 kt METAR EKRN 201220Z AUTO 28012KT 9999 OVC020/// 05/04 Q1017
12:50
M
5 °C 10 km+ 1,800 ft 280° 280° 9 kt METAR EKRN 201150Z AUTO 28009KT 9999 OVC018/// 05/04 Q1017
12:20
M
5 °C 10 km+ 1,900 ft 290° 290° 11 kt METAR EKRN 201120Z AUTO 29011KT 9999 OVC019/// 05/04 Q1017
11:50
M
5 °C 10 km+ 1,800 ft 290° 290° 11 kt METAR EKRN 201050Z AUTO 29011KT 9999 OVC018/// 05/04 Q1017
11:20
M
5 °C 10 km+ 1,400 ft 300° 300° 11 kt METAR EKRN 201020Z AUTO 30011KT 9999 OVC014/// 05/04 Q1017
10:50
M
5 °C 10 km+ 1,400 ft 290° 290° 11 kt METAR EKRN 200950Z AUTO 29011KT 9999 OVC014/// 05/04 Q1017
10:20
L
5 °C 10 km+ 200 ft 290° 290° 12 kt METAR EKRN 200920Z AUTO 29012KT 9999 BKN002/// OVC017/// 05/04 Q1017
09:50
L
5 °C 9 km 200 ft 290° 290° 9 kt METAR EKRN 200850Z AUTO 29009KT 9000 OVC002/// 05/04 Q1017
09:20
L
4 °C 2.9 km 200 ft 290° 290° 7 kt METAR EKRN 200820Z AUTO 29007KT 2900 BR BKN002/// OVC009/// 04/04 Q1017
08:50
M
4 °C 10 km+ 1,100 ft 290° 290° 8 kt METAR EKRN 200750Z AUTO 29008KT 9999 SCT002/// OVC011/// 04/04 Q1017
08:20
M
4 °C 9 km 1,400 ft 290° 290° 10 kt METAR EKRN 200720Z AUTO 29010KT 9000 FEW003/// OVC014/// 04/04 Q1016
07:50
V
5 °C 8 km - 300° 300° 10 kt METAR EKRN 200650Z AUTO 30010KT 8000 ///////// 05/04 Q1016
07:20
L
4 °C 2.9 km 200 ft 300° 300° 11 kt METAR EKRN 200620Z AUTO 30011KT 2900 BR OVC002/// 04/04 Q1016
06:50
M
4 °C 10 km+ 2,600 ft 300° 300° 12 kt METAR EKRN 200550Z AUTO 30012KT 9999 SCT003/// OVC026/// 04/04 Q1016
06:20
L
4 °C 10 km+ 300 ft 290° 290° 11 kt METAR EKRN 200520Z AUTO 29011KT 9999 BKN003/// OVC022/// 04/04 Q1016
05:50
M
4 °C 10 km+ 1,000 ft 300° 300° 9 kt METAR EKRN 200450Z AUTO 30009KT 9999 OVC010/// 04/04 Q1016
05:20
L
4 °C 8 km 200 ft 290° 290° 8 kt METAR EKRN 200420Z AUTO 29008KT 8000 BKN002/// OVC020/// 04/04 Q1016
04:50
L
4 °C 7 km 200 ft 290° 290° 8 kt METAR EKRN 200350Z AUTO 29008KT 7000 BKN002/// OVC020/// 04/04 Q1015
04:20
L
4 °C 3.6 km 200 ft 290° 290° 8 kt METAR EKRN 200320Z AUTO 29008KT 3600 BR OVC002/// 04/04 Q1015
03:50
L
4 °C 8 km 200 ft 290° 290° 8 kt METAR EKRN 200250Z AUTO 29008KT 8000 BKN002/// BKN024/// OVC029/// 04/04 Q1015
03:20
M
4 °C 10 km+ 2,600 ft 290° 290° 8 kt METAR EKRN 200220Z AUTO 29008KT 9999 FEW003/// OVC026/// 04/04 Q1015
02:50
M
5 °C 10 km+ 2,300 ft 290° 290° 9 kt METAR EKRN 200150Z AUTO 29009KT 9999 OVC023/// 05/04 Q1015
02:20
M
5 °C 10 km+ 2,100 ft 290° 290° 10 kt METAR EKRN 200120Z AUTO 29010KT 9999 FEW002/// OVC021/// 05/04 Q1015
01:50
L
4 °C 7 km 300 ft 290° 290° 10 kt METAR EKRN 200050Z AUTO 29010KT 7000 BKN003/// OVC023/// 04/04 Q1015
01:20
L
5 °C 7 km 300 ft 290° 290° 11 kt METAR EKRN 200020Z AUTO 29011KT 7000 BKN003/// OVC027/// 05/04 Q1015
00:50
L
5 °C 10 km+ 400 ft 290° 290° 9 kt METAR EKRN 192350Z AUTO 29009KT 9999 BKN004/// OVC024/// 05/04 Q1015
00:20
L
5 °C 9 km 200 ft 290° 290° 9 kt METAR EKRN 192320Z AUTO 29009KT 9000 BKN002/// OVC024/// 05/04 Q1015

February 19, 2024

Time Code Weather Temp. Visibility Ceiling Wind METAR/SPECI
23:50
L
5 °C 7 km 200 ft 290° 290° 10 kt METAR EKRN 192250Z AUTO 29010KT 7000 OVC002/// 05/04 Q1015
23:20
L
5 °C 6 km 200 ft 280° 280° 10 kt METAR EKRN 192220Z AUTO 28010KT 6000 OVC002/// 05/04 Q1015
22:50
L
5 °C 9 km 300 ft 290° 290° 9 kt METAR EKRN 192150Z AUTO 29009KT 9000 OVC003/// 05/04 Q1015
22:20
I
4 °C 10 km+ 500 ft 290° 290° 8 kt METAR EKRN 192120Z AUTO 29008KT 9999 OVC005/// 04/04 Q1015
21:50
M
4 °C 10 km+ 2,400 ft 290° 290° 8 kt METAR EKRN 192050Z 29008KT 9999 -RA SCT014 BKN024 04/04 Q1015
21:20
M
5 °C 6 km 2,300 ft 290° 290° 12 kt METAR EKRN 192020Z 29012KT 6000 -RA SCT008 BKN023 05/04 Q1015
20:50
M
5 °C 7 km 1,100 ft 290° 290° 11 kt METAR EKRN 191950Z 29011KT 7000 -RA BKN011 BKN020 05/04 Q1015
20:20
M
4 °C 8 km 1,100 ft 290° 290° 10 kt METAR EKRN 191920Z 29010KT 8000 OVC011 04/04 Q1015
19:20
L
4 °C 4.3 km 200 ft 290° 290° 5 kt METAR EKRN 191820Z 29005KT 4300 BR OVC002 04/04 Q1015
19:07
L
4 °C 400 m 200 ft 290° 290° 6 kt METAR EKRN 191807Z 29006KT 0400 R11/1300N R29/P1500D FG VV002 04/03 Q1015
18:50
L
4 °C 700 m 200 ft 290° 290° 7 kt METAR EKRN 191750Z 29007KT 0700 R11/P1500N R29/P1500N FG VV002 04/04 Q1015
18:43
L
4 °C 1.9 km 200 ft 290° 290° 7 kt METAR EKRN 191743Z 29007KT 1900 BR VV002 04/03 Q1015
18:20
L
4 °C 10 km+ 300 ft 280° 280° 8 kt METAR EKRN 191720Z 28008KT 9999 -RA BKN003 04/03 Q1015
17:50
I
4 °C 10 km+ 800 ft 290° 290° 10 kt METAR EKRN 191650Z 29010KT 9999 -RA BKN008 BKN019 04/03 Q1015
17:20
M
4 °C 10 km+ 2,800 ft 290° 290° 11 kt METAR EKRN 191620Z 29011KT 9999 SCT012 BKN028 04/03 Q1015
16:50
V
4 °C 10 km+ 3,300 ft 290° 290° 13 kt METAR EKRN 191550Z 29013KT 9999 DZ SCT010 BKN033 04/03 Q1015
16:20
V
4 °C 10 km+ 3,800 ft 300° 300° 13 kt METAR EKRN 191520Z 30013KT 9999 DZ SCT007 BKN038 04/02 Q1015
15:50
V
4 °C 10 km+ - 300° 300° 15 kt METAR EKRN 191450Z 30015KT 9999 SCT007 SCT040 04/03 Q1014
15:20
I
4 °C 10 km+ 600 ft 300° 300° 14 kt METAR EKRN 191420Z AUTO 30014KT 9999 OVC006/// 04/03 Q1014
14:50
I
4 °C 10 km+ 600 ft 300° 300° 14 kt METAR EKRN 191350Z AUTO 30014KT 9999 OVC006/// 04/03 Q1014
14:20
I
4 °C 10 km+ 500 ft 300° 300° 15 kt METAR EKRN 191320Z AUTO 30015KT 9999 OVC005/// 04/03 Q1014
13:50
I
4 °C 10 km+ 500 ft 310° 310° 15 kt METAR EKRN 191250Z AUTO 31015KT 9999 OVC005/// 04/03 Q1014
13:20
L
4 °C 10 km+ 300 ft 300° 300° 16 kt METAR EKRN 191220Z AUTO 30016KT 9999 OVC003/// 04/03 Q1014
12:50
L
4 °C 4.3 km 200 ft 300° 300° 13 kt METAR EKRN 191150Z AUTO 30013KT 4300 -DZ BR VV002 04/04 Q1014
12:20
L
4 °C 1.4 km 300 ft 300° 300° 11 kt METAR EKRN 191120Z AUTO 30011KT 1400 R11/P1500N R29/P1500N -DZ FG VV003 04/04 Q1014
11:50
L
4 °C 2.3 km 200 ft 310° 310° 10 kt METAR EKRN 191050Z AUTO 31010KT 2300 BR VV002 04/04 Q1014
11:20
L
4 °C 2.1 km 200 ft 320° 320° 11 kt METAR EKRN 191020Z AUTO 32011KT 2100 BR OVC002/// 04/04 Q1013
10:50
L
4 °C 2.2 km 200 ft 310° 310° 9 kt METAR EKRN 190950Z AUTO 31009KT 2200 R11/1300N R29/P1500U FG VV002 04/04 Q1013
10:20
L
4 °C 2.5 km 200 ft 310° 310° 8 kt METAR EKRN 190920Z AUTO 31008KT 2500 -RA BR OVC002/// 04/04 Q1013
09:50
L
4 °C 750 m 200 ft 300° 300° 5 kt METAR EKRN 190850Z AUTO 30005KT 0750 R11/1300N R29/P1500N -RA FG VV002 04/04 Q1013
09:20
L
4 °C 1.4 km 200 ft 350° 350° 1 kt METAR EKRN 190820Z AUTO 35001KT 1400 R11/P1500N R29/P1500U -RA BR OVC002/// 04/04 Q1013
08:50
L
4 °C 1.6 km 200 ft 040° 040° 1 kt METAR EKRN 190750Z AUTO 04001KT 1600 -RA BR OVC002/// 04/04 Q1013
08:20
L
4 °C 2.9 km 300 ft 060° 060° 2 kt METAR EKRN 190720Z AUTO 06002KT 2900 -RA BR OVC003/// 04/04 Q1012
07:50
L
4 °C 3.7 km 300 ft 110° 110° 3 kt METAR EKRN 190650Z AUTO 11003KT 3700 -RA BR OVC003/// 04/03 Q1012
07:20
L
4 °C 3.8 km 300 ft 110° 110° 5 kt METAR EKRN 190620Z AUTO 11005KT 3800 -DZ BR OVC003/// 04/03 Q1012
06:50
L
4 °C 6 km 300 ft 110° 110° 5 kt METAR EKRN 190550Z AUTO 11005KT 6000 -DZ BR OVC003/// 04/03 Q1013
06:20
L
4 °C 5 km 300 ft 110° 110° 6 kt METAR EKRN 190520Z AUTO 11006KT 5000 -RA BR OVC003/// 04/03 Q1013
05:50
L
4 °C 3.5 km 300 ft 110° 110° 6 kt METAR EKRN 190450Z AUTO 11006KT 3500 -RA BR OVC003/// 04/03 Q1013
05:20
L
4 °C 4.2 km 400 ft 110° 110° 6 kt METAR EKRN 190420Z AUTO 11006KT 4200 -RA BR OVC004/// 04/03 Q1013
04:50
L
4 °C 4.7 km 400 ft 120° 120° 7 kt METAR EKRN 190350Z AUTO 12007KT 4700 -RA BR OVC004/// 04/03 Q1013
04:20
I
4 °C 4.2 km 500 ft 110° 110° 6 kt METAR EKRN 190320Z AUTO 11006KT 4200 RA OVC005/// 04/03 Q1014
03:50
I
4 °C 5 km 600 ft 110° 110° 7 kt METAR EKRN 190250Z AUTO 11007KT 5000 -RA OVC006/// 04/03 Q1014
03:20
M
4 °C 6 km 1,000 ft 110° 110° 8 kt METAR EKRN 190220Z AUTO 11008KT 6000 RA OVC010/// 04/03 Q1014
02:50
M
4 °C 7 km 1,100 ft 110° 110° 9 kt METAR EKRN 190150Z AUTO 11009KT 7000 RA OVC011/// 04/03 Q1015
02:20
M
4 °C 8 km 1,500 ft 110° 110° 9 kt METAR EKRN 190120Z AUTO 11009KT 8000 -RA OVC015/// 04/03 Q1015
01:50
M
4 °C 8 km 1,800 ft 130° 130° 12 kt METAR EKRN 190050Z AUTO 13012KT 8000 -RA BKN018/// OVC032/// 04/03 Q1016
01:20
M
4 °C 7 km 2,800 ft 140° 140° 15 kt METAR EKRN 190020Z AUTO 14015KT 7000 -RA OVC028/// 04/03 Q1016
00:50
M
4 °C 9 km 2,500 ft 150° 150° 14 kt METAR EKRN 182350Z AUTO 15014KT 9000 -RA OVC025/// 04/03 Q1017
00:20
M
4 °C 9 km 2,700 ft 120° 120° 7 kt METAR EKRN 182320Z AUTO 12007KT 9000 -RA FEW011/// FEW024/// OVC027/// 04/03 Q1017

February 18, 2024

Time Code Weather Temp. Visibility Ceiling Wind METAR/SPECI
23:50
M
4 °C 9 km 1,100 ft 100° 100° 8 kt METAR EKRN 182250Z AUTO 10008KT 9000 -RA OVC011/// 04/03 Q1018
23:20
M
4 °C 10 km+ 2,200 ft 110° 110° 8 kt METAR EKRN 182220Z AUTO 11008KT 9999 -RA OVC022/// 04/03 Q1018
22:50
M
4 °C 10 km+ 2,300 ft 110° 110° 8 kt METAR EKRN 182150Z AUTO 11008KT 9999 -RA OVC023/// 04/02 Q1019
22:20
M
4 °C 10 km+ 2,700 ft 110° 110° 7 kt METAR EKRN 182120Z AUTO 11007KT 9999 -RA OVC027/// 04/02 Q1019
21:50
M
4 °C 10 km+ 2,800 ft 110° 110° 7 kt METAR EKRN 182050Z AUTO 11007KT 9999 -RA OVC028/// 04/03 Q1020
21:20
M
4 °C 10 km+ 2,800 ft 110° 110° 8 kt METAR EKRN 182020Z AUTO 11008KT 9999 -RA OVC028/// 04/03 Q1020
20:50
M
4 °C 10 km+ 2,600 ft 110° 110° 7 kt METAR EKRN 181950Z AUTO 11007KT 9999 -RA OVC026/// 04/03 Q1021
20:20
M
4 °C 10 km+ 2,500 ft 120° 120° 7 kt METAR EKRN 181920Z AUTO 12007KT 9999 -RA OVC025/// 04/03 Q1021
19:50
M
4 °C 9 km 2,400 ft 120° 120° 8 kt METAR EKRN 181850Z AUTO 12008KT 9000 -RA OVC024/// 04/03 Q1022
19:20
M
4 °C 9 km 2,400 ft 120° 120° 9 kt METAR EKRN 181820Z AUTO 12009KT 9000 -RA OVC024/// 04/03 Q1022
18:50
M
4 °C 9 km 2,500 ft 120° 120° 9 kt METAR EKRN 181750Z AUTO 12009KT 9000 -RA OVC025/// 04/03 Q1023
18:20
M
4 °C 10 km+ 2,500 ft 120° 120° 10 kt METAR EKRN 181720Z AUTO 12010KT 9999 -RA OVC025/// 04/03 Q1023
17:50
M
4 °C 10 km+ 2,900 ft 130° 130° 11 kt METAR EKRN 181650Z AUTO 13011KT 9999 -RA OVC029/// 04/03 Q1024
17:20
M
4 °C 9 km 3,000 ft 130° 130° 13 kt METAR EKRN 181620Z AUTO 13013KT 9000 -RA OVC030/// 04/02 Q1024
16:50
V
4 °C 10 km+ 4,600 ft 130° 130° 14 kt METAR EKRN 181550Z AUTO 13014KT 9999 OVC046/// 04/02 Q1024
16:20
V
4 °C 10 km+ 4,800 ft 130° 130° 13 kt METAR EKRN 181520Z AUTO 13013KT 9999 OVC048/// 04/02 Q1025
15:50
V
4 °C 10 km+ 10,000 ft 130° 130° 13 kt METAR EKRN 181450Z AUTO 13013KT 9999 SCT047/// OVC100/// 04/02 Q1025
15:20
V
4 °C 10 km+ 4,700 ft 140° 140° 13 kt METAR EKRN 181420Z AUTO 14013KT 9999 BKN047/// 04/02 Q1026
14:50
V
4 °C 10 km+ 4,600 ft 140° 140° 14 kt METAR EKRN 181350Z AUTO 14014KT 9999 BKN046/// BKN120/// 04/02 Q1027
14:20
V
4 °C 10 km+ 13,000 ft 140° 140° 13 kt METAR EKRN 181320Z AUTO 14013KT 9999 FEW045/// BKN130/// 04/02 Q1027
13:50
V
4 °C 10 km+ 12,000 ft 140° 140° 12 kt METAR EKRN 181250Z AUTO 14012KT 9999 BKN120/// BKN150/// 04/02 Q1028
13:20
V
4 °C 10 km+ 11,000 ft 140° 140° 12 kt METAR EKRN 181220Z AUTO 14012KT 9999 BKN110/// 04/02 Q1028
12:50
V
3 °C 8 km 12,000 ft 150° 150° 11 kt METAR EKRN 181150Z AUTO 15011KT 8000 SCT003/// BKN120/// 03/02 Q1029
12:20
L
3 °C 5 km 200 ft 160° 160° 10 kt METAR EKRN 181120Z AUTO 16010KT 5000 BR BKN002/// BKN130/// 03/02 Q1029
11:50
L
2 °C 6 km 200 ft 160° 160° 11 kt METAR EKRN 181050Z AUTO 16011KT 6000 -DZ BR OVC002/// 02/02 Q1030
11:20
L
3 °C 6 km 200 ft 160° 160° 11 kt METAR EKRN 181020Z AUTO 16011KT 6000 OVC002/// 03/02 Q1030
10:50
L
3 °C 10 km+ 200 ft 160° 160° 11 kt METAR EKRN 180950Z AUTO 16011KT 9999 BKN002/// 03/02 Q1031
10:20
I
3 °C 10 km+ 500 ft 160° 160° 11 kt METAR EKRN 180920Z AUTO 16011KT 9999 BKN005/// BKN140/// 03/02 Q1031
09:50
L
3 °C 10 km+ 400 ft 160° 160° 10 kt METAR EKRN 180850Z AUTO 16010KT 9999 BKN004/// BKN140/// 03/02 Q1031
09:20
V
3 °C 10 km+ - 160° 160° 8 kt METAR EKRN 180820Z AUTO 16008KT 9999 SCT140/// SCT160/// 03/02 Q1031
08:50
V
3 °C 10 km+ - 140° 140° 8 kt METAR EKRN 180750Z AUTO 14008KT 9999 FEW170/// 03/02 Q1032
08:20
V
1 °C 10 km+ - 120° 120° 5 kt METAR EKRN 180720Z AUTO 12005KT 9999 SCT180/// 01/00 Q1032
07:50
V
0 °C 10 km+ - 110° 110° 5 kt METAR EKRN 180650Z AUTO 11005KT 9999 SCT180/// 00/M01 Q1032
07:20
V
0 °C 10 km+ 18,000 ft 090° 090° 6 kt METAR EKRN 180620Z AUTO 09006KT 9999 BKN180/// M00/M01 Q1032
06:50
V
0 °C 10 km+ - 090° 090° 6 kt METAR EKRN 180550Z AUTO 09006KT 9999 SCT190/// M00/M01 Q1032